Newington, Virginia
Current Conditions -  °F | °C
As of 10:29 AM on Monday 22 Dec 2014 (Local Time) from KDAA Reporting Station
Haze Haze  
Wind Chill: 36°   Ceiling: 4400
Heat Index: 36°   Visibility: 2.5mi
Dew Point: 28°   Wind: 2mph
Humidity: 75%   Direction: 10°N
Pressure: 30.29"   Gusts: NA
Location:  38.74°N, 77.18°W
Report Text: KDAA 221529Z AUTO 01002KT 2 1/2SM HZ BKN044 BKN085 02/M02 A3029 RMK AO2
Loading
Personal Weather Stations






























Interactive Weather Map New forecast layout! Learn more

10-Day Weather Forecast

Advertisements
Track Severe Weather on mobile